Observation data for Slaton on 06/24/2019      Previous  Date  Next       Current Mesonet Observations  Soil Data  Daily Summary Page  Observations in Plain Language
KSLS 240500Z 11011KT 24/13 A2991 RMK A01 T02390131  RH  052%=      5-min Rain = 0
KSLS 240505Z 11009KT 23/13 A2991 RMK A01 T02340131  RH  053%=      5-min Rain = 0
KSLS 240510Z 11009KT 23/13 A2992 RMK A01 T02320134  RH  055%=      5-min Rain = 0
KSLS 240515Z 11008KT 23/13 A2992 RMK A01 T02300134  RH  056%=      5-min Rain = 0
KSLS 240520Z 10008KT 23/14 A2992 RMK A01 T02270138  RH  058%=      5-min Rain = 0
KSLS 240525Z 10008KT 23/14 A2992 RMK A01 T02260140  RH  060%=      5-min Rain = 0
KSLS 240530Z 11007KT 22/14 A2992 RMK A01 T02240141  RH  060%=      5-min Rain = 0
KSLS 240535Z 11008KT 22/14 A2991 RMK A01 T02230140  RH  061%=      5-min Rain = 0
KSLS 240540Z 10007KT 22/15 A2992 RMK A01 T02210145  RH  063%=      5-min Rain = 0
KSLS 240545Z 11006KT 22/15 A2992 RMK A01 T02220146  RH  063%=      5-min Rain = 0
KSLS 240550Z 12009G14KT 22/15 A2992 RMK A01 T02230147  RH  063%=      5-min Rain = 0
KSLS 240555Z 11008G13KT 23/15 A2992 RMK A01 T02250151  RH  064%=      5-min Rain = 0
KSLS 240600Z 10006KT 22/15 A2992 RMK A01 T02230152  RH  065%=      5-min Rain = 0
KSLS 240605Z 11005KT 22/15 A2992 RMK A01 T02200152  RH  067%=      5-min Rain = 0
KSLS 240610Z 11006KT 22/15 A2992 RMK A01 T02180153  RH  068%=      5-min Rain = 0
KSLS 240615Z 10006KT 22/16 A2992 RMK A01 T02160156  RH  070%=      5-min Rain = 0
KSLS 240620Z 10008KT 22/16 A2992 RMK A01 T02150159  RH  072%=      5-min Rain = 0
KSLS 240625Z 10009KT 21/16 A2992 RMK A01 T02140159  RH  073%=      5-min Rain = 0
KSLS 240630Z 10010KT 21/16 A2992 RMK A01 T02130160  RH  074%=      5-min Rain = 0
KSLS 240635Z 10009KT 21/16 A2992 RMK A01 T02110162  RH  075%=      5-min Rain = 0
KSLS 240640Z 10007KT 21/16 A2991 RMK A01 T02080162  RH  077%=      5-min Rain = 0
KSLS 240645Z 08005KT 21/16 A2992 RMK A01 T02060162  RH  078%=      5-min Rain = 0
KSLS 240650Z 08006KT 20/16 A2991 RMK A01 T02030161  RH  078%=      5-min Rain = 0
KSLS 240655Z 08007KT 20/16 A2991 RMK A01 T02010162  RH  080%=      5-min Rain = 0
KSLS 240700Z 08007KT 20/16 A2991 RMK A01 T02010163  RH  081%=      5-min Rain = 0
KSLS 240705Z 08006KT 20/16 A2992 RMK A01 T02010164  RH  081%=      5-min Rain = 0
KSLS 240710Z 08006KT 20/16 A2992 RMK A01 T02000164  RH  082%=      5-min Rain = 0
KSLS 240715Z 08006KT 20/17 A2992 RMK A01 T01990165  RH  083%=      5-min Rain = 0
KSLS 240720Z 07006KT 20/17 A2992 RMK A01 T02000166  RH  083%=      5-min Rain = 0
KSLS 240725Z 08007KT 20/17 A2992 RMK A01 T02000166  RH  083%=      5-min Rain = 0
KSLS 240730Z 08007KT 20/17 A2992 RMK A01 T02000167  RH  083%=      5-min Rain = 0
KSLS 240735Z 07007KT 20/17 A2993 RMK A01 T01990167  RH  084%=      5-min Rain = 0
KSLS 240740Z 07006KT 20/17 A2993 RMK A01 T01990167  RH  084%=      5-min Rain = 0
KSLS 240745Z 06006KT 20/17 A2993 RMK A01 T01980168  RH  084%=      5-min Rain = 0
KSLS 240750Z 05006KT 19/17 A2994 RMK A01 T01940166  RH  086%=      5-min Rain = 0
KSLS 240755Z 06006KT 19/17 A2994 RMK A01 T01930166  RH  087%=      5-min Rain = 0
KSLS 240800Z 09007KT 19/17 A2993 RMK A01 T01920166  RH  087%=      5-min Rain = 0
KSLS 240805Z 09006KT 19/17 A2994 RMK A01 T01940169  RH  087%=      5-min Rain = 0
KSLS 240810Z 05006KT 19/17 A2994 RMK A01 T01940167  RH  087%=      5-min Rain = 0
KSLS 240815Z 03009KT 19/17 A2995 RMK A01 T01930168  RH  087%=      5-min Rain = 0
KSLS 240820Z 05008KT 19/17 A2995 RMK A01 T01940169  RH  088%=      5-min Rain = 0
KSLS 240825Z 07007G12KT 20/17 A2994 RMK A01 T01950170  RH  087%=      5-min Rain = 0
KSLS 240830Z 07007KT 20/17 A2994 RMK A01 T01950170  RH  087%=      5-min Rain = 0
KSLS 240835Z 06007KT 19/17 A2994 RMK A01 T01940170  RH  088%=      5-min Rain = 0
KSLS 240840Z 06007KT 19/17 A2994 RMK A01 T01940170  RH  088%=      5-min Rain = 0
KSLS 240845Z 07007KT 19/17 A2994 RMK A01 T01940170  RH  088%=      5-min Rain = 0
KSLS 240850Z 07007KT 20/17 A2994 RMK A01 T01950170  RH  088%=      5-min Rain = 0
KSLS 240855Z 06008KT 20/17 A2994 RMK A01 T01950170  RH  088%=      5-min Rain = 0
KSLS 240900Z 06007KT 20/17 A2994 RMK A01 T01950170  RH  088%=      5-min Rain = 0
KSLS 240905Z 06007KT 19/17 A2994 RMK A01 T01940170  RH  088%=      5-min Rain = 0
KSLS 240910Z 06006KT 20/17 A2994 RMK A01 T01950170  RH  088%=      5-min Rain = 0
KSLS 240915Z 06006KT 19/17 A2994 RMK A01 T01940170  RH  088%=      5-min Rain = 0
KSLS 240920Z 06006KT 19/17 A2995 RMK A01 T01930169  RH  088%=      5-min Rain = 0
KSLS 240925Z 07007KT 19/17 A2995 RMK A01 T01920169  RH  089%=      5-min Rain = 0
KSLS 240930Z 07008KT 19/17 A2995 RMK A01 T01930169  RH  088%=      5-min Rain = 0
KSLS 240935Z 07007KT 19/17 A2995 RMK A01 T01940170  RH  088%=      5-min Rain = 0
KSLS 240940Z 07007KT 19/17 A2995 RMK A01 T01930170  RH  088%=      5-min Rain = 0
KSLS 240945Z 07007G12KT 19/17 A2995 RMK A01 T01920170  RH  089%=      5-min Rain = 0
KSLS 240950Z 08009KT 19/17 A2996 RMK A01 T01940171  RH  088%=      5-min Rain = 0
KSLS 240955Z 08009KT 19/17 A2996 RMK A01 T01940171  RH  089%=      5-min Rain = 0
KSLS 241000Z 08009KT 19/17 A2996 RMK A01 T01940171  RH  089%=      5-min Rain = 0
KSLS 241005Z 07009G14KT 19/17 A2996 RMK A01 T01940171  RH  089%=      5-min Rain = 0
KSLS 241010Z 07008KT 19/17 A2996 RMK A01 T01930171  RH  089%=      5-min Rain = 0
KSLS 241015Z 06008KT 19/17 A2996 RMK A01 T01910170  RH  090%=      5-min Rain = 0
KSLS 241020Z 06007KT 19/17 A2996 RMK A01 T01890170  RH  091%=      5-min Rain = 0
KSLS 241025Z 06007KT 19/17 A2996 RMK A01 T01880169  RH  091%=      5-min Rain = 0
KSLS 241030Z 06007KT 19/17 A2997 RMK A01 T01870169  RH  091%=      5-min Rain = 0
KSLS 241035Z 06008KT 19/17 A2996 RMK A01 T01860169  RH  092%=      5-min Rain = 0
KSLS 241040Z 06007KT 19/17 A2997 RMK A01 T01860168  RH  091%=      5-min Rain = 0
KSLS 241045Z 06008KT 19/17 A2997 RMK A01 T01860168  RH  091%=      5-min Rain = 0
KSLS 241050Z 06009KT 19/17 A2997 RMK A01 T01880168  RH  090%=      5-min Rain = 0
KSLS 241055Z 06008KT 19/17 A2997 RMK A01 T01880168  RH  090%=      5-min Rain = 0
KSLS 241100Z 06008KT 19/17 A2997 RMK A01 T01880168  RH  090%=      5-min Rain = 0
KSLS 241105Z 06008KT 19/17 A2997 RMK A01 T01870167  RH  090%=      5-min Rain = 0
KSLS 241110Z 06009KT 19/17 A2998 RMK A01 T01880168  RH  090%=      5-min Rain = 0
KSLS 241115Z 05008KT 19/17 A2998 RMK A01 T01870167  RH  090%=      5-min Rain = 0
KSLS 241120Z 05008KT 19/17 A2998 RMK A01 T01860167  RH  091%=      5-min Rain = 0
KSLS 241125Z 05008KT 19/17 A2998 RMK A01 T01850167  RH  091%=      5-min Rain = 0
KSLS 241130Z 05008KT 19/17 A2998 RMK A01 T01850168  RH  092%=      5-min Rain = 0
KSLS 241135Z 05009KT 19/17 A2998 RMK A01 T01850168  RH  092%=      5-min Rain = 0
KSLS 241140Z 05008KT 18/17 A2998 RMK A01 T01840167  RH  092%=      5-min Rain = 0
KSLS 241145Z 05008KT 18/17 A2998 RMK A01 T01830167  RH  093%=      5-min Rain = 0
KSLS 241150Z 05010KT 18/17 A2998 RMK A01 T01830167  RH  093%=      5-min Rain = 0
KSLS 241155Z 05009KT 18/17 A2998 RMK A01 T01830166  RH  092%=      5-min Rain = 0
KSLS 241200Z 06008G13KT 18/17 A2999 RMK A01 T01820165  RH  092%=      5-min Rain = 0
KSLS 241205Z 06007KT 18/16 A2999 RMK A01 T01810164  RH  092%=      5-min Rain = 0
KSLS 241210Z 06007KT 18/16 A2999 RMK A01 T01810164  RH  092%=      5-min Rain = 0
KSLS 241215Z 06007KT 18/16 A2999 RMK A01 T01810164  RH  091%=      5-min Rain = 0
KSLS 241220Z 05008KT 18/16 A2999 RMK A01 T01820164  RH  091%=      5-min Rain = 0
KSLS 241225Z 05009KT 18/17 A2999 RMK A01 T01840165  RH  091%=      5-min Rain = 0
KSLS 241230Z 05009KT 19/17 A2999 RMK A01 T01870166  RH  090%=      5-min Rain = 0
KSLS 241235Z 05008KT 19/17 A2999 RMK A01 T01890167  RH  089%=      5-min Rain = 0
KSLS 241240Z 04009G14KT 19/17 A2999 RMK A01 T01910169  RH  089%=      5-min Rain = 0
KSLS 241245Z 05010KT 19/17 A30 RMK A01 T01940169  RH  088%=      5-min Rain = 0
KSLS 241250Z 05010G15KT 19/17 A30 RMK A01 T01940169  RH  088%=      5-min Rain = 0
KSLS 241255Z 05011KT 19/17 A30 RMK A01 T01930169  RH  088%=      5-min Rain = 0
KSLS 241300Z 05010G15KT 20/17 A3001 RMK A01 T01960168  RH  086%=      5-min Rain = 0
KSLS 241305Z 05007G12KT 20/17 A3001 RMK A01 T01970168  RH  086%=      5-min Rain = 0
KSLS 241310Z 05010G15KT 20/17 A3001 RMK A01 T01970167  RH  084%=      5-min Rain = 0
KSLS 241315Z 06011KT 20/16 A3001 RMK A01 T01970163  RH  082%=      5-min Rain = 0
KSLS 241320Z 05009KT 20/16 A3001 RMK A01 T01990162  RH  081%=      5-min Rain = 0
KSLS 241325Z 06009KT 20/16 A3002 RMK A01 T02020163  RH  080%=      5-min Rain = 0
KSLS 241330Z 06009G14KT 20/16 A3002 RMK A01 T02040163  RH  079%=      5-min Rain = 0
KSLS 241335Z 06010KT 21/16 A3002 RMK A01 T02050163  RH  079%=      5-min Rain = 0
KSLS 241340Z 06009KT 21/16 A3002 RMK A01 T02070164  RH  078%=      5-min Rain = 0
KSLS 241345Z 06007KT 21/17 A3002 RMK A01 T02110166  RH  077%=      5-min Rain = 0
KSLS 241350Z 07009G15KT 21/17 A3002 RMK A01 T02140166  RH  076%=      5-min Rain = 0
KSLS 241355Z 07010KT 21/17 A3002 RMK A01 T02130165  RH  076%=      5-min Rain = 0
KSLS 241400Z 07010KT 21/17 A3002 RMK A01 T02130165  RH  076%=      5-min Rain = 0
KSLS 241405Z 06010G15KT 22/17 A3002 RMK A01 T02170166  RH  074%=      5-min Rain = 0
KSLS 241410Z 06011KT 22/17 A3002 RMK A01 T02160165  RH  075%=      5-min Rain = 0
KSLS 241415Z 07011KT 22/17 A3002 RMK A01 T02150165  RH  075%=      5-min Rain = 0
KSLS 241420Z 07012G18KT 22/17 A3002 RMK A01 T02150165  RH  075%=      5-min Rain = 0
KSLS 241425Z 06012KT 21/17 A3002 RMK A01 T02130165  RH  076%=      5-min Rain = 0
KSLS 241430Z 06013KT 22/17 A3002 RMK A01 T02160165  RH  075%=      5-min Rain = 0
KSLS 241435Z 07012G17KT 22/17 A3002 RMK A01 T02180165  RH  073%=      5-min Rain = 0
KSLS 241440Z 06012G17KT 22/17 A3003 RMK A01 T02210165  RH  072%=      5-min Rain = 0
KSLS 241445Z 06010G15KT 22/17 A3003 RMK A01 T02230165  RH  071%=      5-min Rain = 0
KSLS 241450Z 06012G17KT 23/17 A3003 RMK A01 T02250165  RH  071%=      5-min Rain = 0
KSLS 241455Z 07010G15KT 23/17 A3003 RMK A01 T02270165  RH  070%=      5-min Rain = 0
KSLS 241500Z 07011G16KT 23/17 A3003 RMK A01 T02290166  RH  069%=      5-min Rain = 0
KSLS 241505Z 08013KT 23/16 A3003 RMK A01 T02310163  RH  067%=      5-min Rain = 0
KSLS 241510Z 07011G16KT 23/16 A3003 RMK A01 T02320163  RH  067%=      5-min Rain = 0
KSLS 241515Z 08012G18KT 24/17 A3003 RMK A01 T02350165  RH  066%=      5-min Rain = 0
KSLS 241520Z 08011G17KT 24/16 A3003 RMK A01 T02380164  RH  064%=      5-min Rain = 0
KSLS 241525Z 08011KT 24/16 A3003 RMK A01 T02380162  RH  064%=      5-min Rain = 0
KSLS 241530Z 07011G17KT 24/17 A3003 RMK A01 T02390165  RH  065%=      5-min Rain = 0
KSLS 241535Z 09012G19KT 24/16 A3003 RMK A01 T02420162  RH  062%=      5-min Rain = 0
KSLS 241540Z 09011G17KT 24/16 A3003 RMK A01 T02440163  RH  062%=      5-min Rain = 0
KSLS 241545Z 10013G18KT 25/16 A3002 RMK A01 T02460162  RH  061%=      5-min Rain = 0
KSLS 241550Z 09014G20KT 25/16 A3002 RMK A01 T02470159  RH  059%=      5-min Rain = 0
KSLS 241555Z 09013KT 24/16 A3002 RMK A01 T02440161  RH  061%=      5-min Rain = 0
KSLS 241600Z 08013G18KT 25/16 A3002 RMK A01 T02450160  RH  061%=      5-min Rain = 0
KSLS 241605Z 10013KT 25/16 A3002 RMK A01 T02490164  RH  060%=      5-min Rain = 0
KSLS 241610Z 09013G19KT 25/16 A3002 RMK A01 T02490163  RH  060%=      5-min Rain = 0
KSLS 241615Z 09013G20KT 25/16 A3002 RMK A01 T02510161  RH  059%=      5-min Rain = 0
KSLS 241620Z 10015G20KT 25/16 A3002 RMK A01 T02490162  RH  059%=      5-min Rain = 0
KSLS 241625Z 10016KT 25/16 A3002 RMK A01 T02500158  RH  058%=      5-min Rain = 0
KSLS 241630Z 10015G20KT 25/16 A3002 RMK A01 T02520159  RH  058%=      5-min Rain = 0
KSLS 241635Z 09013G18KT 25/16 A3002 RMK A01 T02540159  RH  057%=      5-min Rain = 0
KSLS 241640Z 10015KT 26/16 A3002 RMK A01 T02550159  RH  057%=      5-min Rain = 0
KSLS 241645Z 09013G20KT 26/16 A3001 RMK A01 T02560159  RH  056%=      5-min Rain = 0
KSLS 241650Z 09014G19KT 26/16 A3001 RMK A01 T02580160  RH  056%=      5-min Rain = 0
KSLS 241655Z 10015G20KT 26/16 A3002 RMK A01 T02610161  RH  055%=      5-min Rain = 0
KSLS 241700Z 08013G19KT 26/16 A3001 RMK A01 T02590160  RH  056%=      5-min Rain = 0
KSLS 241705Z 08013G20KT 26/16 A3001 RMK A01 T02630157  RH  054%=      5-min Rain = 0
KSLS 241710Z 10015G21KT 26/16 A3001 RMK A01 T02600158  RH  055%=      5-min Rain = 0
KSLS 241715Z 09012G19KT 26/16 A3001 RMK A01 T02630159  RH  054%=      5-min Rain = 0
KSLS 241720Z 09012G20KT 27/16 A3001 RMK A01 T02650155  RH  052%=      5-min Rain = 0
KSLS 241725Z 10011G16KT 27/16 A3001 RMK A01 T02670158  RH  052%=      5-min Rain = 0
KSLS 241730Z 09012G23KT 27/16 A3001 RMK A01 T02690157  RH  051%=      5-min Rain = 0
KSLS 241735Z 10014KT 27/16 A3001 RMK A01 T02690155  RH  051%=      5-min Rain = 0
KSLS 241740Z 09012G18KT 27/16 A3001 RMK A01 T02700159  RH  052%=      5-min Rain = 0
KSLS 241745Z 11012KT 27/16 A3001 RMK A01 T02710157  RH  051%=      5-min Rain = 0
KSLS 241750Z 08011G16KT 27/16 A30 RMK A01 T02730159  RH  051%=      5-min Rain = 0
KSLS 241755Z 10011G16KT 28/16 A30 RMK A01 T02750159  RH  050%=      5-min Rain = 0
KSLS 241805Z 08008G14KT 27/16 A3001 RMK A01 T02740160  RH  051%=      5-min Rain = 0
KSLS 241810Z 10010KT 28/16 A30 RMK A01 T02760164  RH  051%=      5-min Rain = 0
KSLS 241815Z 09011KT 27/16 A30 RMK A01 T02740163  RH  052%=      5-min Rain = 0
KSLS 241820Z 10009G14KT 27/16 A30 RMK A01 T02730163  RH  052%=      5-min Rain = 0
KSLS 241825Z 08009KT 28/16 A30 RMK A01 T02750164  RH  052%=      5-min Rain = 0
KSLS 241830Z 13009G15KT 28/17 A30 RMK A01 T02790170  RH  052%=      5-min Rain = 0
KSLS 241835Z 10009G14KT 28/17 A30 RMK A01 T02780168  RH  052%=      5-min Rain = 0
KSLS 241840Z 08011KT 28/17 A30 RMK A01 T02760165  RH  052%=      5-min Rain = 0
KSLS 241845Z 10010G16KT 28/17 A2999 RMK A01 T02800171  RH  053%=      5-min Rain = 0
KSLS 241850Z 08011KT 28/17 A2999 RMK A01 T02810171  RH  053%=      5-min Rain = 0
KSLS 241855Z 09011G17KT 28/17 A2999 RMK A01 T02810173  RH  053%=      5-min Rain = 0
KSLS 241900Z 11008G14KT 29/18 A2999 RMK A01 T02850176  RH  053%=      5-min Rain = 0
KSLS 241905Z 10010KT 29/17 A2999 RMK A01 T02850172  RH  051%=      5-min Rain = 0
KSLS 241910Z 09011G17KT 28/17 A2999 RMK A01 T02840173  RH  052%=      5-min Rain = 0
KSLS 241915Z 11011KT 28/17 A2999 RMK A01 T02840172  RH  052%=      5-min Rain = 0
KSLS 241920Z 11010KT 28/17 A2999 RMK A01 T02840172  RH  052%=      5-min Rain = 0
KSLS 241925Z 11010G16KT 29/17 A2999 RMK A01 T02860170  RH  051%=      5-min Rain = 0
KSLS 241930Z 11008KT 28/17 A2999 RMK A01 T02840171  RH  052%=      5-min Rain = 0
KSLS 241935Z 10009KT 29/17 A2998 RMK A01 T02860170  RH  051%=      5-min Rain = 0
KSLS 241940Z 11009G14KT 29/17 A2998 RMK A01 T02880171  RH  050%=      5-min Rain = 0
KSLS 241945Z 11009G15KT 29/17 A2998 RMK A01 T02870172  RH  051%=      5-min Rain = 0
KSLS 241950Z 10008G13KT 29/17 A2998 RMK A01 T02900171  RH  050%=      5-min Rain = 0
KSLS 241955Z 12008KT 29/17 A2998 RMK A01 T02900171  RH  050%=      5-min Rain = 0
KSLS 242000Z 10009G14KT 29/17 A2998 RMK A01 T02910174  RH  051%=      5-min Rain = 0
KSLS 242005Z 11005KT 29/18 A2998 RMK A01 T02900175  RH  051%=      5-min Rain = 0
KSLS 242010Z 08008G17KT 29/18 A2997 RMK A01 T02890175  RH  052%=      5-min Rain = 0
KSLS 242015Z 11007KT 29/17 A2997 RMK A01 T02890174  RH  051%=      5-min Rain = 0
KSLS 242020Z 14008KT 29/17 A2997 RMK A01 T02940172  RH  049%=      5-min Rain = 0
KSLS 242025Z 13006KT 30/17 A2997 RMK A01 T02950169  RH  048%=      5-min Rain = 0
KSLS 242030Z 11012G17KT 30/18 A2997 RMK A01 T02950176  RH  050%=      5-min Rain = 0
KSLS 242035Z 11011KT 29/18 A2996 RMK A01 T02900175  RH  051%=      5-min Rain = 0
KSLS 242040Z 10008KT 29/17 A2996 RMK A01 T02910173  RH  050%=      5-min Rain = 0
KSLS 242045Z 10010G15KT 29/17 A2996 RMK A01 T02930172  RH  049%=      5-min Rain = 0
KSLS 242050Z 12009G14KT 30/17 A2996 RMK A01 T02960172  RH  048%=      5-min Rain = 0
KSLS 242055Z 11007G12KT 30/17 A2996 RMK A01 T02970169  RH  047%=      5-min Rain = 0
KSLS 242100Z 13009G15KT 30/17 A2995 RMK A01 T03000174  RH  048%=      5-min Rain = 0
KSLS 242105Z 11009G14KT 30/17 A2995 RMK A01 T03010174  RH  048%=      5-min Rain = 0
KSLS 242110Z 09009G15KT 30/17 A2995 RMK A01 T02990174  RH  048%=      5-min Rain = 0
KSLS 242115Z 11012KT 30/18 A2995 RMK A01 T03000177  RH  049%=      5-min Rain = 0
KSLS 242120Z 10011KT 30/17 A2995 RMK A01 T02970174  RH  049%=      5-min Rain = 0
KSLS 242125Z 10007G13KT 30/17 A2994 RMK A01 T02970172  RH  048%=      5-min Rain = 0
KSLS 242130Z 09012G18KT 30/17 A2994 RMK A01 T02950174  RH  050%=      5-min Rain = 0
KSLS 242135Z 08008G13KT 30/18 A2994 RMK A01 T02950177  RH  050%=      5-min Rain = 0
KSLS 242140Z 10010G15KT 30/18 A2994 RMK A01 T02980176  RH  049%=      5-min Rain = 0
KSLS 242145Z 09009KT 30/18 A2993 RMK A01 T03000178  RH  049%=      5-min Rain = 0
KSLS 242150Z 10010G17KT 30/18 A2993 RMK A01 T03000176  RH  048%=      5-min Rain = 0
KSLS 242155Z 09009KT 30/18 A2993 RMK A01 T03000176  RH  049%=      5-min Rain = 0
KSLS 242200Z 08007G13KT 30/17 A2992 RMK A01 T03010174  RH  048%=      5-min Rain = 0
KSLS 242205Z 08009G15KT 30/18 A2992 RMK A01 T03010175  RH  048%=      5-min Rain = 0
KSLS 242210Z 09008G13KT 30/17 A2992 RMK A01 T03010174  RH  048%=      5-min Rain = 0
KSLS 242215Z 11005KT 30/18 A2992 RMK A01 T03040176  RH  047%=      5-min Rain = 0
KSLS 242220Z 09008G14KT 31/18 A2992 RMK A01 T03060178  RH  048%=      5-min Rain = 0
KSLS 242225Z 10009KT 30/18 A2992 RMK A01 T03030178  RH  048%=      5-min Rain = 0
KSLS 242230Z 10008KT 30/18 A2992 RMK A01 T03020178  RH  048%=      5-min Rain = 0
KSLS 242235Z 07007KT 30/18 A2992 RMK A01 T03020176  RH  048%=      5-min Rain = 0
KSLS 242240Z 06007KT 30/18 A2991 RMK A01 T03040178  RH  048%=      5-min Rain = 0
KSLS 242245Z 08010G16KT 30/18 A2991 RMK A01 T03020179  RH  049%=      5-min Rain = 0
KSLS 242250Z 09011G16KT 30/18 A2991 RMK A01 T03020178  RH  049%=      5-min Rain = 0
KSLS 242255Z 08009KT 30/18 A2991 RMK A01 T03010176  RH  048%=      5-min Rain = 0
KSLS 242300Z 10009KT 30/18 A2991 RMK A01 T03010175  RH  048%=      5-min Rain = 0
KSLS 242305Z 09010G15KT 30/18 A2991 RMK A01 T03030177  RH  048%=      5-min Rain = 0
KSLS 242310Z 09010G15KT 30/17 A2991 RMK A01 T03010174  RH  048%=      5-min Rain = 0
KSLS 242315Z 10011KT 30/18 A299 RMK A01 T03020177  RH  049%=      5-min Rain = 0
KSLS 242320Z 09009G14KT 30/18 A299 RMK A01 T03000175  RH  048%=      5-min Rain = 0
KSLS 242325Z 10010KT 30/18 A299 RMK A01 T03040178  RH  048%=      5-min Rain = 0
KSLS 242330Z 10011G16KT 30/18 A299 RMK A01 T03030176  RH  048%=      5-min Rain = 0
KSLS 242335Z 09012G17KT 30/18 A2989 RMK A01 T03020176  RH  048%=      5-min Rain = 0
KSLS 242340Z 10012KT 30/18 A2989 RMK A01 T03000176  RH  049%=      5-min Rain = 0
KSLS 242345Z 10012G18KT 30/18 A2989 RMK A01 T02970178  RH  050%=      5-min Rain = 0
KSLS 242350Z 09012KT 29/18 A2989 RMK A01 T02900177  RH  052%=      5-min Rain = 0
KSLS 242355Z 09011KT 29/17 A2988 RMK A01 T02870174  RH  052%=      5-min Rain = 0
KSLS 250000Z 09012KT 29/17 A2988 RMK A01 T02850173  RH  052%=      5-min Rain = 0
KSLS 250005Z 09013G18KT 28/17 A2988 RMK A01 T02840174  RH  053%=      5-min Rain = 0
KSLS 250010Z 08014G19KT 28/17 A2988 RMK A01 T02820172  RH  052%=      5-min Rain = 0
KSLS 250015Z 09013G19KT 28/17 A2987 RMK A01 T02810172  RH  053%=      5-min Rain = 0
KSLS 250020Z 09016G22KT 28/17 A2987 RMK A01 T02780173  RH  054%=      5-min Rain = 0
KSLS 250025Z 09018G24KT 28/17 A2986 RMK A01 T02770172  RH  054%=      5-min Rain = 0
KSLS 250030Z 10021G26KT 28/18 A2987 RMK A01 T02760176  RH  056%=      5-min Rain = 0
KSLS 250035Z 12019G26KT 27/18 A2988 RMK A01 T02740178  RH  057%=      5-min Rain = 0
KSLS 250040Z 12017G23KT 25/20 A2992 RMK A01 T02480197  RH  075%=      5-min Rain = 0.05
KSLS 250045Z 10013G19KT 24/20 A2994 RMK A01 T02390199  RH  081%=      5-min Rain = 0.03
KSLS 250050Z 08011KT 24/20 A2994 RMK A01 T02370199  RH  081%=      5-min Rain = 0.02
KSLS 250055Z 08011G16KT 24/20 A2994 RMK A01 T02350196  RH  081%=      5-min Rain = 0.04
KSLS 250100Z 07012KT 23/20 A2992 RMK A01 T02310198  RH  084%=      5-min Rain = 0.04
KSLS 250105Z 06012KT 23/20 A2991 RMK A01 T02270200  RH  087%=      5-min Rain = 0.01
KSLS 250110Z 06011KT 23/20 A2992 RMK A01 T02270200  RH  087%=      5-min Rain = 0
KSLS 250115Z 06011KT 23/20 A2991 RMK A01 T02260201  RH  088%=      5-min Rain = 0.03
KSLS 250120Z 03011KT 22/20 A2991 RMK A01 T02240203  RH  091%=      5-min Rain = 0.03
KSLS 250125Z 04009KT 22/20 A2992 RMK A01 T02230201  RH  090%=      5-min Rain = 0.04
KSLS 250130Z 06008KT 22/20 A2992 RMK A01 T02230201  RH  090%=      5-min Rain = 0.01
KSLS 250135Z 07008G13KT 22/20 A2993 RMK A01 T02240202  RH  090%=      5-min Rain = 0
KSLS 250140Z 09009KT 23/20 A2993 RMK A01 T02290201  RH  086%=      5-min Rain = 0.01
KSLS 250145Z 11009KT 23/20 A2994 RMK A01 T02320203  RH  086%=      5-min Rain = 0
KSLS 250150Z 09008KT 23/20 A2994 RMK A01 T02330202  RH  085%=      5-min Rain = 0
KSLS 250155Z 07009KT 23/20 A2993 RMK A01 T02310204  RH  087%=      5-min Rain = 0.01
KSLS 250200Z 10010KT 23/21 A2993 RMK A01 T02320206  RH  088%=      5-min Rain = 0
KSLS 250205Z 13007KT 23/21 A2994 RMK A01 T02340205  RH  086%=      5-min Rain = 0
KSLS 250210Z 12006KT 23/21 A2994 RMK A01 T02320205  RH  087%=      5-min Rain = 0
KSLS 250215Z 10007KT 23/21 A2992 RMK A01 T02330205  RH  087%=      5-min Rain = 0
KSLS 250220Z 10010KT 23/20 A2991 RMK A01 T02330204  RH  087%=      5-min Rain = 0
KSLS 250225Z 10011KT 23/20 A2991 RMK A01 T02320204  RH  087%=      5-min Rain = 0
KSLS 250230Z 11010KT 23/20 A2992 RMK A01 T02330203  RH  086%=      5-min Rain = 0
KSLS 250235Z 11009KT 23/20 A2992 RMK A01 T02330203  RH  086%=      5-min Rain = 0
KSLS 250240Z 12010KT 23/20 A2992 RMK A01 T02320202  RH  086%=      5-min Rain = 0
KSLS 250245Z 12010KT 23/20 A2992 RMK A01 T02320202  RH  086%=      5-min Rain = 0
KSLS 250250Z 11009KT 23/20 A2993 RMK A01 T02320203  RH  086%=      5-min Rain = 0
KSLS 250255Z 12009KT 23/20 A2993 RMK A01 T02320202  RH  086%=      5-min Rain = 0
KSLS 250300Z 12008KT 23/20 A2993 RMK A01 T02300203  RH  087%=      5-min Rain = 0
KSLS 250305Z 11009KT 23/20 A2993 RMK A01 T02300202  RH  087%=      5-min Rain = 0
KSLS 250310Z 12009KT 23/20 A2994 RMK A01 T02300202  RH  087%=      5-min Rain = 0
KSLS 250315Z 13008KT 23/20 A2994 RMK A01 T02290202  RH  087%=      5-min Rain = 0
KSLS 250320Z 12009KT 23/20 A2994 RMK A01 T02280203  RH  088%=      5-min Rain = 0
KSLS 250325Z 12010G15KT 23/20 A2994 RMK A01 T02290203  RH  088%=      5-min Rain = 0
KSLS 250330Z 13011KT 23/20 A2995 RMK A01 T02290202  RH  087%=      5-min Rain = 0
KSLS 250335Z 13010KT 23/20 A2995 RMK A01 T02290203  RH  088%=      5-min Rain = 0
KSLS 250340Z 13012KT 23/20 A2996 RMK A01 T02300203  RH  087%=      5-min Rain = 0
KSLS 250345Z 14011KT 23/20 A2996 RMK A01 T02290204  RH  088%=      5-min Rain = 0
KSLS 250350Z 14013KT 23/21 A2996 RMK A01 T02290205  RH  089%=      5-min Rain = 0
KSLS 250355Z 14013G18KT 23/21 A2997 RMK A01 T02290207  RH  089%=      5-min Rain = 0
KSLS 250400Z 13013KT 23/21 A2997 RMK A01 T02290208  RH  090%=      5-min Rain = 0
KSLS 250405Z 14013KT 23/21 A2997 RMK A01 T02290208  RH  090%=      5-min Rain = 0
KSLS 250410Z 14012KT 23/21 A2997 RMK A01 T02280209  RH  091%=      5-min Rain = 0
KSLS 250415Z 15011KT 23/21 A2997 RMK A01 T02270210  RH  092%=      5-min Rain = 0
KSLS 250420Z 15013KT 23/21 A2997 RMK A01 T02270211  RH  093%=      5-min Rain = 0
KSLS 250425Z 15013G18KT 23/21 A2997 RMK A01 T02280211  RH  093%=      5-min Rain = 0
KSLS 250430Z 14014KT 23/21 A2997 RMK A01 T02280212  RH  094%=      5-min Rain = 0
KSLS 250435Z 14014KT 23/21 A2997 RMK A01 T02280212  RH  094%=      5-min Rain = 0
KSLS 250440Z 14014KT 23/21 A2997 RMK A01 T02270212  RH  094%=      5-min Rain = 0
KSLS 250445Z 14015KT 23/21 A2998 RMK A01 T02260212  RH  094%=      5-min Rain = 0
KSLS 250450Z 14014G19KT 23/21 A2998 RMK A01 T02260211  RH  094%=      5-min Rain = 0
KSLS 250455Z 14014G19KT 23/21 A2998 RMK A01 T02250210  RH  094%=      5-min Rain = 0

Page generated in 0.0092 seconds.